Kvitbjoern — LM9158 — position and weather

sailwx.info

Track history (hours):
 
Tides and Currents Weather Stations Pressure Air Temp Water Temp Dewpoint Dewpoint Depression Visibility Wind Speed Wind Dir Waves Ship Positions

Kvitbjoern

Last reported at 2014-Oct-25 06:33 UTC. Time now 2014-Oct-25 07:06 UTC.
Position N 66°23' E 012°26'.

Length 10 m.

Type: Fishing. MMSI: 257454420.

Date/timePositionNaut miles runAvg speedWind from/ knotsBaromVisibWave heightAir tempDewpointWater temp
2014-Oct-25 06:33N 66°23' E 012°26'2 2.0
2014-Oct-25 05:33N 66°22' E 012°21'0 0.0
2014-Oct-24 14:30N 66°22' E 012°21'0 0.0
2014-Oct-23 16:07N 66°22' E 012°21'0 0.0
2014-Oct-23 15:25N 66°22' E 012°21'0 0.0
2014-Oct-23 14:31N 66°22' E 012°21'0 0.0
2014-Oct-23 13:25N 66°22' E 012°21'0 0.0
2014-Oct-23 12:31N 66°22' E 012°21'0 0.0
2014-Oct-23 11:31N 66°22' E 012°21'0 0.0
2014-Oct-23 10:31N 66°22' E 012°21'0 0.0
2014-Oct-22 14:29N 66°22' E 012°21'0 0.0
2014-Oct-22 13:29N 66°22' E 012°21'0 0.0
2014-Oct-22 12:29N 66°22' E 012°21'0 0.0
2014-Oct-22 11:29N 66°22' E 012°21'0 0.0
2014-Oct-21 13:33N 66°22' E 012°21'0 0.0
2014-Oct-21 12:33N 66°22' E 012°21'0 0.0
2014-Oct-21 11:33N 66°22' E 012°21'2 0.1
2014-Oct-20 14:33N 66°22' E 012°27'1 0.3
2014-Oct-20 12:33N 66°22' E 012°29'2 1.8
2014-Oct-20 11:32N 66°22' E 012°24'1 0.5
2014-Oct-20 10:33N 66°23' E 012°24'1 0.6
2014-Oct-20 09:29N 66°22' E 012°24'0 0.4
2014-Oct-20 08:30N 66°22' E 012°23'0 0.4
2014-Oct-20 07:33N 66°22' E 012°23'0 0.0
2014-Oct-20 06:33N 66°22' E 012°23'1 0.0
2014-Oct-18 17:29N 66°22' E 012°21'0 0.0
2014-Oct-18 16:29N 66°22' E 012°21'0 0.4
2014-Oct-18 15:33N 66°22' E 012°22'0 0.3
2014-Oct-18 14:33N 66°22' E 012°22'4 2.2
2014-Oct-18 12:33N 66°22' E 012°33'4 4.1
2014-Oct-18 11:32N 66°22' E 012°23'0 0.3
2014-Oct-18 10:33N 66°22' E 012°23'0 0.0
2014-Oct-18 09:31N 66°22' E 012°23'1 0.6
2014-Oct-18 08:28N 66°22' E 012°24'1 0.8
2014-Oct-18 07:30N 66°23' E 012°24'1 0.9
2014-Oct-18 06:31N 66°23' E 012°26'1 0.6
2014-Oct-18 05:33N 66°23' E 012°25'1 0.1
2014-Oct-17 15:33N 66°22' E 012°23'0 0.2
2014-Oct-17 14:33N 66°22' E 012°22'0 0.0
2014-Oct-15 15:32N 66°22' E 012°21'2 0.8
2014-Oct-15 12:32N 66°22' E 012°27'1 1.3
2014-Oct-15 11:30N 66°23' E 012°26'1 1.0
2014-Oct-15 10:33N 66°23' E 012°24'1 0.7
2014-Oct-15 09:31N 66°22' E 012°24'0 0.5
2014-Oct-15 08:32N 66°22' E 012°23'0 0.2
2014-Oct-15 07:32N 66°22' E 012°24'  
Track history (hours):
 
Tides and Currents Weather Stations Pressure Air Temp Water Temp Dewpoint Dewpoint Depression Visibility Wind Speed Wind Dir Waves Ship Positions

Kvitbjoern

Last reported at 2014-Oct-25 06:33 UTC. Time now 2014-Oct-25 07:06 UTC.
Position N 66°23' E 012°26'.

Length 10 m.

Type: Fishing. MMSI: 257454420.

Date/timePositionNaut miles runAvg speedWind from/ knotsBaromVisibWave heightAir tempDewpointWater temp
2014-Oct-25 06:33N 66°23' E 012°26'2 2.0
2014-Oct-25 05:33N 66°22' E 012°21'0 0.0
2014-Oct-24 14:30N 66°22' E 012°21'0 0.0
2014-Oct-23 16:07N 66°22' E 012°21'0 0.0
2014-Oct-23 15:25N 66°22' E 012°21'0 0.0
2014-Oct-23 14:31N 66°22' E 012°21'0 0.0
2014-Oct-23 13:25N 66°22' E 012°21'0 0.0
2014-Oct-23 12:31N 66°22' E 012°21'0 0.0
2014-Oct-23 11:31N 66°22' E 012°21'0 0.0
2014-Oct-23 10:31N 66°22' E 012°21'0 0.0
2014-Oct-22 14:29N 66°22' E 012°21'0 0.0
2014-Oct-22 13:29N 66°22' E 012°21'0 0.0
2014-Oct-22 12:29N 66°22' E 012°21'0 0.0
2014-Oct-22 11:29N 66°22' E 012°21'0 0.0
2014-Oct-21 13:33N 66°22' E 012°21'0 0.0
2014-Oct-21 12:33N 66°22' E 012°21'0 0.0
2014-Oct-21 11:33N 66°22' E 012°21'2 0.1
2014-Oct-20 14:33N 66°22' E 012°27'1 0.3
2014-Oct-20 12:33N 66°22' E 012°29'2 1.8
2014-Oct-20 11:32N 66°22' E 012°24'1 0.5
2014-Oct-20 10:33N 66°23' E 012°24'1 0.6
2014-Oct-20 09:29N 66°22' E 012°24'0 0.4
2014-Oct-20 08:30N 66°22' E 012°23'0 0.4
2014-Oct-20 07:33N 66°22' E 012°23'0 0.0
2014-Oct-20 06:33N 66°22' E 012°23'1 0.0
2014-Oct-18 17:29N 66°22' E 012°21'0 0.0
2014-Oct-18 16:29N 66°22' E 012°21'0 0.4
2014-Oct-18 15:33N 66°22' E 012°22'0 0.3
2014-Oct-18 14:33N 66°22' E 012°22'4 2.2
2014-Oct-18 12:33N 66°22' E 012°33'4 4.1
2014-Oct-18 11:32N 66°22' E 012°23'0 0.3
2014-Oct-18 10:33N 66°22' E 012°23'0 0.0
2014-Oct-18 09:31N 66°22' E 012°23'1 0.6
2014-Oct-18 08:28N 66°22' E 012°24'1 0.8
2014-Oct-18 07:30N 66°23' E 012°24'1 0.9
2014-Oct-18 06:31N 66°23' E 012°26'1 0.6
2014-Oct-18 05:33N 66°23' E 012°25'1 0.1
2014-Oct-17 15:33N 66°22' E 012°23'0 0.2
2014-Oct-17 14:33N 66°22' E 012°22'0 0.0
2014-Oct-15 15:32N 66°22' E 012°21'2 0.8
2014-Oct-15 12:32N 66°22' E 012°27'1 1.3
2014-Oct-15 11:30N 66°23' E 012°26'1 1.0
2014-Oct-15 10:33N 66°23' E 012°24'1 0.7
2014-Oct-15 09:31N 66°22' E 012°24'0 0.5
2014-Oct-15 08:32N 66°22' E 012°23'0 0.2
2014-Oct-15 07:32N 66°22' E 012°24'  

Dump ship's entire track history